createdAt,value
2018-05-08T00:00:58.352Z,7.89
2018-05-08T00:01:58.338Z,7.85
2018-05-08T00:02:58.418Z,7.82
2018-05-08T00:03:58.354Z,7.79
2018-05-08T00:04:58.364Z,7.76
2018-05-08T00:05:58.418Z,7.74
2018-05-08T00:06:58.290Z,7.70
2018-05-08T00:07:58.290Z,7.70
2018-05-08T00:08:58.292Z,7.71
2018-05-08T00:09:58.360Z,7.68
2018-05-08T00:10:58.349Z,7.67
2018-05-08T00:11:58.289Z,7.64
2018-05-08T00:12:58.349Z,7.60
2018-05-08T00:13:58.454Z,7.59
2018-05-08T00:14:58.425Z,7.58
2018-05-08T00:15:58.313Z,7.56
2018-05-08T00:16:58.393Z,7.56
2018-05-08T00:17:58.357Z,7.68
2018-05-08T00:18:58.420Z,7.71
2018-05-08T00:19:58.358Z,7.67
2018-05-08T00:20:58.333Z,7.63
2018-05-08T00:21:58.430Z,7.60
2018-05-08T00:22:58.395Z,7.58
2018-05-08T00:23:58.472Z,7.53
2018-05-08T00:24:58.400Z,7.53
2018-05-08T00:25:58.393Z,7.49
2018-05-08T00:26:58.315Z,7.46
2018-05-08T00:27:58.365Z,7.44
2018-05-08T00:28:58.433Z,7.41
2018-05-08T00:29:58.321Z,7.37
2018-05-08T00:30:58.364Z,7.34
2018-05-08T00:31:58.376Z,7.37
2018-05-08T00:32:58.442Z,7.34
2018-05-08T00:33:58.383Z,7.29
2018-05-08T00:34:58.397Z,7.26
2018-05-08T00:35:58.429Z,7.30
2018-05-08T00:36:58.462Z,7.33
2018-05-08T00:37:58.406Z,7.31
2018-05-08T00:38:58.368Z,7.29
2018-05-08T00:39:58.403Z,7.27
2018-05-08T00:40:58.408Z,7.29
2018-05-08T00:41:58.386Z,7.29
2018-05-08T00:42:58.376Z,7.37
2018-05-08T00:43:58.425Z,7.35
2018-05-08T00:44:58.384Z,7.35
2018-05-08T00:45:58.308Z,7.35
2018-05-08T00:46:58.405Z,7.31
2018-05-08T00:47:58.406Z,7.31
2018-05-08T00:48:58.388Z,7.33
2018-05-08T00:49:58.408Z,7.31
2018-05-08T00:50:58.403Z,7.30
2018-05-08T00:51:58.335Z,7.27
2018-05-08T00:52:58.408Z,7.26
2018-05-08T00:53:58.321Z,7.26
2018-05-08T00:54:58.343Z,7.24
2018-05-08T00:55:58.334Z,7.23
2018-05-08T00:56:58.404Z,7.23
2018-05-08T00:57:58.299Z,7.22
2018-05-08T00:58:58.322Z,7.19
2018-05-08T00:59:58.310Z,7.19
2018-05-08T01:00:58.353Z,7.15
2018-05-08T01:01:58.422Z,7.13
2018-05-08T01:02:58.358Z,7.13
2018-05-08T01:03:58.418Z,7.09
2018-05-08T01:04:58.368Z,7.07
2018-05-08T01:05:58.363Z,7.08
2018-05-08T01:06:58.422Z,7.09
2018-05-08T01:07:58.431Z,7.22
2018-05-08T01:08:58.354Z,7.19
2018-05-08T01:09:58.425Z,7.16
2018-05-08T01:10:58.405Z,7.16
2018-05-08T01:11:58.429Z,7.18
2018-05-08T01:12:58.426Z,7.13
2018-05-08T01:13:58.410Z,7.12
2018-05-08T01:14:58.398Z,7.09
2018-05-08T01:15:58.392Z,7.05
2018-05-08T01:16:58.456Z,7.05
2018-05-08T01:17:58.408Z,7.01
2018-05-08T01:18:58.433Z,7.05
2018-05-08T01:19:58.468Z,7.02
2018-05-08T01:20:58.334Z,7.01
2018-05-08T01:21:58.528Z,7.08
2018-05-08T01:22:58.355Z,7.04
2018-05-08T01:23:58.449Z,7.00
2018-05-08T01:24:58.480Z,6.97
2018-05-08T01:25:58.468Z,6.93
2018-05-08T01:26:58.397Z,6.91
2018-05-08T01:27:58.378Z,6.87
2018-05-08T01:28:58.339Z,6.81
2018-05-08T01:29:58.413Z,6.78
2018-05-08T01:30:58.446Z,6.72
2018-05-08T01:31:58.439Z,6.71
2018-05-08T01:32:58.370Z,6.68
2018-05-08T01:33:58.379Z,6.64
2018-05-08T01:34:58.441Z,6.61
2018-05-08T01:35:58.381Z,6.59
2018-05-08T01:36:58.441Z,6.59
2018-05-08T01:37:58.467Z,6.56
2018-05-08T01:38:58.380Z,6.57
2018-05-08T01:39:58.380Z,6.59
2018-05-08T01:40:58.362Z,6.66
2018-05-08T01:41:58.433Z,6.67
2018-05-08T01:42:58.411Z,6.68
2018-05-08T01:43:58.535Z,6.72
2018-05-08T01:44:58.346Z,6.72
2018-05-08T01:45:58.477Z,6.75
2018-05-08T01:46:58.423Z,6.72
2018-05-08T01:47:58.476Z,6.71
2018-05-08T01:48:58.450Z,6.68
2018-05-08T01:49:58.426Z,6.64
2018-05-08T01:50:58.451Z,6.61
2018-05-08T01:51:58.387Z,6.64
2018-05-08T01:52:58.466Z,6.61
2018-05-08T01:53:58.455Z,6.59
2018-05-08T01:54:58.383Z,6.57
2018-05-08T01:55:58.459Z,6.57
2018-05-08T01:56:58.390Z,6.56
2018-05-08T01:57:58.457Z,6.55
2018-05-08T01:58:58.386Z,6.55
2018-05-08T01:59:58.563Z,6.55
2018-05-08T02:00:58.390Z,6.56
2018-05-08T02:01:58.460Z,6.49
2018-05-08T02:02:58.467Z,6.48
2018-05-08T02:03:58.458Z,6.51
2018-05-08T02:04:58.396Z,6.52
2018-05-08T02:05:58.398Z,6.55
2018-05-08T02:06:58.397Z,6.57
2018-05-08T02:07:58.399Z,6.63
2018-05-08T02:08:58.354Z,6.70
2018-05-08T02:09:58.462Z,6.70
2018-05-08T02:10:58.421Z,6.70
2018-05-08T02:11:58.488Z,6.70
2018-05-08T02:12:58.387Z,6.66
2018-05-08T02:13:58.504Z,6.63
2018-05-08T02:14:58.482Z,6.59
2018-05-08T02:15:58.443Z,6.56
2018-05-08T02:16:58.512Z,6.51
2018-05-08T02:17:58.466Z,6.45
2018-05-08T02:18:58.451Z,6.43
2018-05-08T02:19:58.433Z,6.41
2018-05-08T02:20:58.370Z,6.37
2018-05-08T02:21:58.337Z,6.33
2018-05-08T02:22:58.399Z,6.33
2018-05-08T02:23:58.406Z,6.27
2018-05-08T02:24:58.403Z,6.23
2018-05-08T02:25:58.477Z,6.25
2018-05-08T02:26:58.466Z,6.23
2018-05-08T02:27:58.342Z,6.23
2018-05-08T02:28:58.429Z,6.16
2018-05-08T02:29:58.404Z,6.11
2018-05-08T02:30:58.523Z,6.15
2018-05-08T02:31:58.494Z,6.11
2018-05-08T02:32:58.459Z,6.11
2018-05-08T02:33:58.457Z,6.09
2018-05-08T02:34:58.423Z,6.04
2018-05-08T02:35:58.437Z,6.03
2018-05-08T02:36:58.486Z,5.96
2018-05-08T02:37:58.511Z,5.91
2018-05-08T02:38:58.456Z,5.91
2018-05-08T02:39:58.401Z,5.88
2018-05-08T02:40:58.385Z,5.86
2018-05-08T02:41:58.387Z,5.82
2018-05-08T02:42:58.483Z,5.86
2018-05-08T02:43:58.488Z,5.85
2018-05-08T02:44:58.420Z,5.84
2018-05-08T02:45:58.467Z,5.85
2018-05-08T02:46:58.454Z,5.92
2018-05-08T02:47:58.456Z,5.96
2018-05-08T02:48:58.458Z,5.96
2018-05-08T02:49:58.457Z,5.95
2018-05-08T02:50:58.393Z,5.96
2018-05-08T02:51:58.392Z,5.99
2018-05-08T02:52:58.515Z,5.93
2018-05-08T02:53:58.463Z,5.95
2018-05-08T02:54:58.432Z,5.92
2018-05-08T02:55:58.393Z,5.88
2018-05-08T02:56:58.498Z,5.86
2018-05-08T02:57:58.530Z,5.82
2018-05-08T02:58:58.463Z,5.82
2018-05-08T02:59:58.402Z,5.78
2018-05-08T03:00:58.479Z,5.77
2018-05-08T03:01:58.529Z,5.84
2018-05-08T03:02:58.502Z,5.84
2018-05-08T03:03:58.436Z,5.82
2018-05-08T03:04:58.536Z,5.84
2018-05-08T03:05:58.500Z,5.85
2018-05-08T03:06:58.538Z,5.86
2018-05-08T03:07:58.539Z,5.82
2018-05-08T03:08:58.474Z,5.79
2018-05-08T03:09:58.476Z,5.78
2018-05-08T03:10:58.444Z,5.78
2018-05-08T03:11:58.503Z,5.75
2018-05-08T03:12:58.532Z,5.75
2018-05-08T03:13:58.507Z,5.74
2018-05-08T03:14:58.427Z,5.79
2018-05-08T03:15:58.445Z,5.79
2018-05-08T03:16:58.424Z,5.79
2018-05-08T03:17:58.551Z,5.77
2018-05-08T03:18:58.512Z,5.75
2018-05-08T03:19:58.447Z,5.75
2018-05-08T03:20:58.447Z,5.74
2018-05-08T03:21:58.475Z,5.73
2018-05-08T03:22:58.468Z,5.70
2018-05-08T03:23:58.515Z,5.68
2018-05-08T03:24:58.531Z,5.68
2018-05-08T03:25:58.543Z,5.67
2018-05-08T03:26:58.548Z,5.64
2018-05-08T03:27:58.546Z,5.62
2018-05-08T03:28:58.544Z,5.60
2018-05-08T03:29:58.534Z,5.57
2018-05-08T03:30:58.514Z,5.55
2018-05-08T03:31:58.449Z,5.53
2018-05-08T03:32:58.457Z,5.52
2018-05-08T03:33:58.515Z,5.49
2018-05-08T03:34:58.454Z,5.48
2018-05-08T03:35:58.515Z,5.49
2018-05-08T03:36:58.518Z,5.49
2018-05-08T03:37:58.518Z,5.49
2018-05-08T03:38:58.518Z,5.55
2018-05-08T03:39:58.459Z,5.57
2018-05-08T03:40:58.480Z,5.56
2018-05-08T03:41:58.479Z,5.55
2018-05-08T03:42:58.471Z,5.51
2018-05-08T03:43:58.507Z,5.48
2018-05-08T03:44:58.459Z,5.45
2018-05-08T03:45:58.479Z,5.46
2018-05-08T03:46:58.518Z,5.45
2018-05-08T03:47:58.414Z,5.48
2018-05-08T03:48:58.391Z,5.48
2018-05-08T03:49:58.516Z,5.49
2018-05-08T03:50:58.527Z,5.46
2018-05-08T03:51:58.527Z,5.42
2018-05-08T03:52:58.448Z,5.48
2018-05-08T03:53:58.507Z,5.52
2018-05-08T03:54:58.497Z,5.62
2018-05-08T03:55:58.494Z,5.67
2018-05-08T03:56:58.504Z,5.68
2018-05-08T03:57:58.538Z,5.71
2018-05-08T03:58:58.528Z,5.73
2018-05-08T03:59:58.550Z,5.73
2018-05-08T04:00:58.532Z,5.70
2018-05-08T04:01:58.493Z,5.81
2018-05-08T04:02:58.537Z,5.88
2018-05-08T04:03:58.472Z,5.93
2018-05-08T04:04:58.573Z,5.93
2018-05-08T04:05:58.534Z,5.91
2018-05-08T04:06:58.540Z,5.92
2018-05-08T04:07:58.469Z,5.93
2018-05-08T04:08:58.539Z,5.88
2018-05-08T04:09:58.538Z,5.88
2018-05-08T04:10:58.523Z,5.85
2018-05-08T04:11:58.448Z,5.82
2018-05-08T04:12:58.446Z,5.86
2018-05-08T04:13:58.405Z,5.89
2018-05-08T04:14:58.567Z,5.88
2018-05-08T04:15:58.431Z,5.96
2018-05-08T04:16:58.462Z,6.06
2018-05-08T04:17:58.448Z,6.15
2018-05-08T04:18:58.464Z,6.16
2018-05-08T04:19:58.535Z,6.14
2018-05-08T04:20:58.536Z,6.11
2018-05-08T04:21:58.574Z,6.08
2018-05-08T04:22:58.506Z,6.06
2018-05-08T04:23:58.569Z,6.03
2018-05-08T04:24:58.516Z,6.02
2018-05-08T04:25:58.581Z,6.09
2018-05-08T04:26:58.583Z,6.08
2018-05-08T04:27:58.475Z,6.12
2018-05-08T04:28:58.522Z,6.12
2018-05-08T04:29:58.474Z,6.11
2018-05-08T04:30:58.456Z,6.09
2018-05-08T04:31:58.546Z,6.08
2018-05-08T04:32:58.544Z,6.06
2018-05-08T04:33:58.537Z,6.06
2018-05-08T04:34:58.456Z,6.09
2018-05-08T04:35:58.548Z,6.11
2018-05-08T04:36:58.439Z,6.14
2018-05-08T04:37:58.461Z,6.18
2018-05-08T04:38:58.486Z,6.26
2018-05-08T04:39:58.543Z,6.27
2018-05-08T04:40:58.512Z,6.27
2018-05-08T04:41:58.514Z,6.34
2018-05-08T04:42:58.577Z,6.36
2018-05-08T04:43:58.495Z,6.38
2018-05-08T04:44:58.514Z,6.44
2018-05-08T04:45:58.533Z,6.43
2018-05-08T04:46:58.591Z,6.45
2018-05-08T04:47:58.562Z,6.48
2018-05-08T04:48:58.591Z,6.48
2018-05-08T04:49:58.582Z,6.47
2018-05-08T04:50:58.595Z,6.48
2018-05-08T04:51:58.602Z,6.52
2018-05-08T04:52:58.589Z,6.59
2018-05-08T04:53:58.533Z,6.68
2018-05-08T04:54:58.585Z,6.72
2018-05-08T04:55:58.663Z,6.77
2018-05-08T04:56:58.566Z,6.81
2018-05-08T04:57:58.525Z,6.87
2018-05-08T04:58:58.568Z,6.93
2018-05-08T04:59:58.535Z,6.97
2018-05-08T05:00:58.590Z,7.04
2018-05-08T05:01:58.567Z,7.16
2018-05-08T05:02:58.468Z,7.34
2018-05-08T05:03:58.479Z,7.38
2018-05-08T05:04:58.574Z,7.42
2018-05-08T05:05:58.527Z,7.46
2018-05-08T05:06:58.564Z,7.58
2018-05-08T05:07:58.605Z,7.68
2018-05-08T05:08:58.483Z,7.70
2018-05-08T05:09:58.542Z,7.71
2018-05-08T05:10:58.620Z,7.76
2018-05-08T05:11:58.484Z,7.81
2018-05-08T05:12:58.578Z,7.83
2018-05-08T05:13:58.515Z,7.85
2018-05-08T05:14:58.551Z,7.89
2018-05-08T05:15:58.611Z,7.95
2018-05-08T05:16:58.551Z,8.01
2018-05-08T05:17:58.502Z,8.05
2018-05-08T05:18:58.553Z,8.09
2018-05-08T05:19:58.534Z,8.15
2018-05-08T05:20:58.560Z,8.20
2018-05-08T05:21:58.626Z,8.30
2018-05-08T05:22:58.546Z,8.42
2018-05-08T05:23:58.628Z,8.50
2018-05-08T05:24:58.558Z,8.54
2018-05-08T05:25:58.551Z,8.58
2018-05-08T05:26:58.596Z,8.67
2018-05-08T05:27:58.589Z,8.76
2018-05-08T05:28:58.559Z,8.85
2018-05-08T05:29:58.583Z,8.91
2018-05-08T05:30:58.587Z,9.01
2018-05-08T05:31:58.524Z,9.12
2018-05-08T05:32:58.494Z,9.19
2018-05-08T05:33:58.492Z,9.25
2018-05-08T05:34:58.473Z,9.30
2018-05-08T05:35:58.545Z,9.38
2018-05-08T05:36:58.532Z,9.49
2018-05-08T05:37:58.458Z,9.53
2018-05-08T05:38:58.588Z,9.61
2018-05-08T05:39:58.525Z,9.64
2018-05-08T05:40:58.526Z,9.69
2018-05-08T05:41:58.533Z,9.72
2018-05-08T05:42:58.602Z,9.76
2018-05-08T05:43:58.534Z,9.84
2018-05-08T05:44:58.528Z,9.97
2018-05-08T05:45:58.605Z,10.09
2018-05-08T05:46:58.536Z,10.27
2018-05-08T05:47:58.630Z,10.47
2018-05-08T05:48:58.611Z,10.69
2018-05-08T05:49:58.535Z,10.91
2018-05-08T05:50:58.606Z,11.09
2018-05-08T05:51:58.630Z,11.29
2018-05-08T05:52:58.570Z,11.46
2018-05-08T05:53:58.561Z,11.65
2018-05-08T05:54:58.633Z,11.83
2018-05-08T05:55:58.647Z,11.99
2018-05-08T05:56:58.629Z,12.18
2018-05-08T05:57:58.576Z,12.37
2018-05-08T05:58:58.585Z,12.53
2018-05-08T05:59:58.540Z,12.64
2018-05-08T06:00:58.563Z,12.87
2018-05-08T06:01:58.584Z,13.07
2018-05-08T06:02:58.635Z,13.14
2018-05-08T06:03:58.586Z,13.28
2018-05-08T06:04:58.549Z,13.39
2018-05-08T06:05:58.571Z,13.57
2018-05-08T06:06:58.641Z,13.68
2018-05-08T06:07:58.579Z,13.35
2018-05-08T06:08:58.647Z,13.34
2018-05-08T06:09:58.595Z,13.27
2018-05-08T06:10:58.646Z,13.29
2018-05-08T06:11:58.638Z,13.21
2018-05-08T06:12:58.584Z,13.17
2018-05-08T06:13:58.584Z,13.28
2018-05-08T06:14:58.585Z,13.39
2018-05-08T06:15:58.652Z,13.56
2018-05-08T06:16:58.542Z,13.61
2018-05-08T06:17:58.613Z,13.54
2018-05-08T06:18:58.591Z,13.66
2018-05-08T06:19:58.526Z,13.59
2018-05-08T06:20:58.648Z,13.54
2018-05-08T06:21:58.528Z,13.50
2018-05-08T06:22:58.525Z,13.62
2018-05-08T06:23:58.597Z,13.70
2018-05-08T06:24:58.524Z,13.88
2018-05-08T06:25:58.592Z,13.98
2018-05-08T06:26:58.650Z,14.11
2018-05-08T06:27:58.551Z,14.15
2018-05-08T06:28:58.595Z,14.33
2018-05-08T06:29:58.520Z,14.51
2018-05-08T06:30:58.596Z,14.44
2018-05-08T06:31:58.608Z,14.47
2018-05-08T06:32:58.579Z,14.61
2018-05-08T06:33:58.491Z,14.66
2018-05-08T06:34:58.561Z,14.80
2018-05-08T06:35:58.516Z,14.92
2018-05-08T06:36:58.497Z,15.03
2018-05-08T06:37:58.530Z,15.19
2018-05-08T06:38:58.559Z,15.32
2018-05-08T06:39:58.584Z,15.39
2018-05-08T06:40:58.510Z,15.46
2018-05-08T06:41:58.916Z,15.46
2018-05-08T06:42:58.605Z,15.65
2018-05-08T06:43:58.661Z,15.76
2018-05-08T06:44:58.600Z,15.91
2018-05-08T06:45:58.664Z,15.97
2018-05-08T06:46:58.601Z,15.99
2018-05-08T06:47:58.610Z,16.25
2018-05-08T06:48:58.637Z,16.51
2018-05-08T06:49:58.614Z,16.68
2018-05-08T06:50:58.655Z,16.88
2018-05-08T06:51:58.675Z,17.12
2018-05-08T06:52:58.670Z,17.33
2018-05-08T06:53:58.546Z,17.50
2018-05-08T06:54:58.767Z,17.66
2018-05-08T06:55:58.545Z,17.77
2018-05-08T06:56:58.546Z,17.94
2018-05-08T06:57:58.679Z,18.09
2018-05-08T06:58:58.679Z,18.16
2018-05-08T06:59:58.680Z,18.20
2018-05-08T07:00:58.623Z,18.35
2018-05-08T07:01:58.606Z,18.44
2018-05-08T07:02:58.642Z,18.58
2018-05-08T07:03:58.549Z,18.68
2018-05-08T07:04:58.612Z,18.81
2018-05-08T07:05:58.608Z,18.91
2018-05-08T07:06:58.611Z,18.94
2018-05-08T07:07:58.681Z,19.06
2018-05-08T07:08:58.651Z,19.20
2018-05-08T07:09:58.629Z,19.33
2018-05-08T07:10:58.678Z,19.44
2018-05-08T07:11:58.707Z,19.38
2018-05-08T07:12:58.675Z,19.40
2018-05-08T07:13:58.685Z,19.46
2018-05-08T07:14:58.611Z,19.49
2018-05-08T07:15:58.709Z,19.55
2018-05-08T07:16:58.558Z,19.68
2018-05-08T07:17:58.687Z,19.68
2018-05-08T07:18:58.679Z,19.76
2018-05-08T07:19:58.620Z,19.87
2018-05-08T07:20:58.613Z,19.96
2018-05-08T07:21:58.658Z,20.06
2018-05-08T07:22:58.655Z,20.05
2018-05-08T07:23:58.692Z,20.02
2018-05-08T07:24:58.622Z,19.90
2018-05-08T07:25:58.627Z,19.94
2018-05-08T07:26:58.638Z,20.13
2018-05-08T07:27:58.661Z,20.20
2018-05-08T07:28:58.564Z,20.34
2018-05-08T07:29:58.656Z,20.41
2018-05-08T07:30:58.664Z,20.42
2018-05-08T07:31:58.703Z,20.58
2018-05-08T07:32:58.706Z,20.64
2018-05-08T07:33:58.711Z,20.61
2018-05-08T07:34:58.644Z,20.72
2018-05-08T07:35:58.644Z,20.93
2018-05-08T07:36:58.627Z,21.04
2018-05-08T07:37:58.679Z,21.09
2018-05-08T07:38:58.640Z,20.98
2018-05-08T07:39:58.633Z,20.88
2018-05-08T07:40:58.670Z,20.88
2018-05-08T07:41:58.674Z,20.93
2018-05-08T07:42:58.610Z,20.91
2018-05-08T07:43:58.675Z,21.02
2018-05-08T07:44:58.609Z,21.08
2018-05-08T07:45:58.671Z,21.24
2018-05-08T07:46:58.671Z,21.42
2018-05-08T07:47:58.605Z,21.64
2018-05-08T07:48:58.613Z,21.64
2018-05-08T07:49:58.678Z,21.80
2018-05-08T07:50:58.613Z,21.86
2018-05-08T07:51:58.541Z,21.72
2018-05-08T07:52:58.662Z,21.72
2018-05-08T07:53:58.663Z,21.69
2018-05-08T07:54:58.602Z,21.71
2018-05-08T07:55:58.552Z,21.87
2018-05-08T07:56:58.551Z,21.79
2018-05-08T07:57:58.605Z,21.87
2018-05-08T07:58:58.615Z,21.91
2018-05-08T07:59:58.578Z,21.91
2018-05-08T08:00:58.559Z,21.96
2018-05-08T08:01:58.683Z,22.01
2018-05-08T08:02:58.707Z,22.12
2018-05-08T08:03:58.648Z,22.36
2018-05-08T08:04:58.655Z,22.25
2018-05-08T08:05:58.648Z,22.16
2018-05-08T08:06:58.730Z,22.31
2018-05-08T08:07:58.723Z,22.41
2018-05-08T08:08:58.657Z,22.53
2018-05-08T08:09:58.658Z,22.56
2018-05-08T08:10:58.655Z,22.53
2018-05-08T08:11:58.626Z,22.56
2018-05-08T08:12:58.673Z,22.77
2018-05-08T08:13:58.566Z,22.88
2018-05-08T08:14:58.676Z,22.98
2018-05-08T08:15:58.552Z,23.11
2018-05-08T08:16:58.704Z,23.20
2018-05-08T08:17:58.629Z,23.28
2018-05-08T08:18:58.561Z,23.28
2018-05-08T08:19:58.557Z,23.37
2018-05-08T08:20:58.569Z,23.22
2018-05-08T08:21:58.699Z,23.23
2018-05-08T08:22:58.696Z,23.33
2018-05-08T08:23:58.638Z,23.23
2018-05-08T08:24:58.700Z,23.38
2018-05-08T08:25:58.703Z,23.61
2018-05-08T08:26:58.630Z,23.41
2018-05-08T08:27:58.696Z,23.35
2018-05-08T08:28:58.700Z,23.39
2018-05-08T08:29:58.635Z,23.28
2018-05-08T08:30:58.636Z,23.42
2018-05-08T08:31:58.708Z,23.64
2018-05-08T08:32:58.639Z,23.68
2018-05-08T08:33:58.779Z,23.51
2018-05-08T08:34:58.709Z,23.06
2018-05-08T08:35:58.703Z,22.94
2018-05-08T08:36:58.641Z,23.12
2018-05-08T08:37:58.645Z,23.33
2018-05-08T08:38:58.714Z,23.49
2018-05-08T08:39:58.713Z,23.39
2018-05-08T08:40:58.756Z,23.61
2018-05-08T08:41:58.597Z,23.78
2018-05-08T08:42:58.610Z,23.94
2018-05-08T08:43:58.597Z,24.01
2018-05-08T08:44:58.697Z,24.16
2018-05-08T08:45:58.711Z,24.19
2018-05-08T08:46:58.643Z,24.29
2018-05-08T08:47:58.715Z,24.33
2018-05-08T08:48:58.600Z,24.34
2018-05-08T08:49:58.603Z,24.64
2018-05-08T08:50:58.581Z,24.60
2018-05-08T08:51:58.647Z,24.61
2018-05-08T08:52:58.688Z,24.63
2018-05-08T08:53:58.683Z,24.78
2018-05-08T08:54:58.623Z,24.91
2018-05-08T08:55:58.727Z,24.59
2018-05-08T08:56:58.603Z,24.47
2018-05-08T08:57:58.602Z,24.61
2018-05-08T08:58:58.607Z,24.78
2018-05-08T08:59:58.715Z,25.02
2018-05-08T09:00:58.605Z,25.23
2018-05-08T09:01:58.726Z,25.33
2018-05-08T09:02:58.662Z,25.55
2018-05-08T09:03:58.807Z,25.57
2018-05-08T09:04:58.728Z,25.60
2018-05-08T09:05:58.661Z,25.53
2018-05-08T09:06:58.656Z,25.40
2018-05-08T09:07:58.729Z,25.35
2018-05-08T09:08:58.752Z,25.29
2018-05-08T09:09:58.712Z,25.35
2018-05-08T09:10:58.726Z,25.20
2018-05-08T09:11:58.663Z,25.17
2018-05-08T09:12:58.768Z,25.15
2018-05-08T09:13:58.667Z,25.12
2018-05-08T09:14:58.730Z,25.17
2018-05-08T09:15:58.735Z,25.23
2018-05-08T09:16:58.701Z,25.15
2018-05-08T09:17:58.763Z,25.15
2018-05-08T09:18:58.671Z,25.15
2018-05-08T09:19:58.670Z,25.12
2018-05-08T09:20:58.735Z,25.20
2018-05-08T09:21:58.729Z,25.19
2018-05-08T09:22:58.679Z,24.94
2018-05-08T09:23:58.725Z,24.94
2018-05-08T09:24:58.806Z,24.95
2018-05-08T09:25:58.730Z,25.13
2018-05-08T09:26:58.629Z,25.29
2018-05-08T09:27:58.761Z,25.48
2018-05-08T09:28:58.629Z,25.41
2018-05-08T09:29:58.744Z,25.46
2018-05-08T09:30:58.729Z,25.49
2018-05-08T09:31:58.677Z,25.44
2018-05-08T09:32:58.703Z,25.46
2018-05-08T09:33:58.735Z,25.60
2018-05-08T09:34:58.633Z,25.82
2018-05-08T09:35:58.648Z,26.06
2018-05-08T09:36:58.629Z,25.80
2018-05-08T09:37:58.649Z,25.75
2018-05-08T09:38:58.698Z,25.75
2018-05-08T09:39:58.615Z,25.62
2018-05-08T09:40:58.746Z,25.48
2018-05-08T09:41:58.673Z,25.62
2018-05-08T09:42:58.617Z,25.77
2018-05-08T09:43:58.732Z,25.70
2018-05-08T09:44:58.637Z,25.64
2018-05-08T09:45:58.618Z,25.70
2018-05-08T09:46:58.618Z,25.64
2018-05-08T09:47:58.682Z,25.67
2018-05-08T09:48:58.627Z,25.71
2018-05-08T09:49:58.624Z,25.84
2018-05-08T09:50:58.704Z,25.66
2018-05-08T09:51:58.738Z,25.66
2018-05-08T09:52:58.651Z,25.63
2018-05-08T09:53:58.746Z,25.81
2018-05-08T09:54:58.647Z,25.73
2018-05-08T09:55:58.684Z,25.62
2018-05-08T09:56:58.633Z,25.68
2018-05-08T09:57:58.680Z,25.68
2018-05-08T09:58:58.680Z,25.77
2018-05-08T09:59:58.646Z,25.68
2018-05-08T10:00:58.714Z,25.68
2018-05-08T10:01:58.731Z,25.64
2018-05-08T10:02:58.789Z,25.48
2018-05-08T10:03:58.724Z,25.49
2018-05-08T10:04:58.667Z,25.64
2018-05-08T10:05:58.664Z,25.75
2018-05-08T10:06:58.717Z,25.73
2018-05-08T10:07:58.676Z,25.64
2018-05-08T10:08:58.667Z,25.59
2018-05-08T10:09:58.692Z,25.63
2018-05-08T10:10:58.745Z,25.59
2018-05-08T10:11:58.810Z,25.67
2018-05-08T10:12:58.791Z,25.89
2018-05-08T10:13:58.733Z,26.08
2018-05-08T10:14:58.773Z,26.15
2018-05-08T10:15:58.729Z,26.30
2018-05-08T10:16:58.775Z,26.25
2018-05-08T10:17:58.821Z,26.25
2018-05-08T10:18:58.773Z,26.13
2018-05-08T10:19:58.775Z,26.00
2018-05-08T10:20:58.745Z,26.00
2018-05-08T10:21:58.777Z,25.93
2018-05-08T10:22:58.709Z,25.96
2018-05-08T10:23:58.779Z,26.02
2018-05-08T10:24:58.777Z,26.02
2018-05-08T10:25:58.709Z,26.04
2018-05-08T10:26:58.776Z,26.00
2018-05-08T10:27:58.714Z,25.99
2018-05-08T10:28:58.860Z,26.04
2018-05-08T10:29:58.717Z,26.14
2018-05-08T10:30:58.714Z,26.44
2018-05-08T10:31:58.786Z,26.43
2018-05-08T10:32:58.840Z,26.24
2018-05-08T10:33:58.723Z,26.49
2018-05-08T10:34:58.677Z,26.36
2018-05-08T10:35:58.721Z,26.33
2018-05-08T10:36:58.725Z,26.26
2018-05-08T10:37:58.683Z,26.29
2018-05-08T10:38:58.724Z,26.10
2018-05-08T10:39:58.816Z,26.04
2018-05-08T10:40:58.784Z,25.93
2018-05-08T10:41:58.736Z,25.84
2018-05-08T10:42:58.828Z,25.81
2018-05-08T10:43:58.753Z,25.84
2018-05-08T10:44:58.819Z,26.10
2018-05-08T10:45:58.755Z,26.03
2018-05-08T10:46:58.822Z,26.17
2018-05-08T10:47:58.794Z,25.99
2018-05-08T10:48:58.691Z,25.91
2018-05-08T10:49:58.700Z,25.73
2018-05-08T10:50:58.717Z,25.68
2018-05-08T10:51:58.657Z,25.64
2018-05-08T10:52:58.667Z,25.95
2018-05-08T10:53:58.662Z,26.07
2018-05-08T10:54:58.796Z,26.03
2018-05-08T10:55:58.796Z,26.07
2018-05-08T10:56:58.727Z,26.22
2018-05-08T10:57:58.684Z,26.38
2018-05-08T10:58:58.785Z,26.55
2018-05-08T10:59:58.788Z,26.58
2018-05-08T11:00:58.784Z,26.74
2018-05-08T11:01:58.802Z,26.58
2018-05-08T11:02:58.766Z,26.40
2018-05-08T11:03:58.768Z,26.48
2018-05-08T11:04:58.707Z,26.67
2018-05-08T11:05:58.777Z,26.72
2018-05-08T11:06:58.824Z,26.89
2018-05-08T11:07:58.771Z,27.12
2018-05-08T11:08:58.746Z,27.14
2018-05-08T11:09:58.773Z,26.99
2018-05-08T11:10:58.715Z,27.00
2018-05-08T11:11:58.822Z,26.66
2018-05-08T11:12:58.849Z,26.62
2018-05-08T11:13:58.711Z,26.49
2018-05-08T11:14:58.708Z,26.45
2018-05-08T11:15:58.846Z,26.47
2018-05-08T11:16:58.747Z,26.49
2018-05-08T11:17:58.734Z,26.30
2018-05-08T11:18:58.813Z,26.14
2018-05-08T11:19:58.781Z,26.18
2018-05-08T11:20:58.769Z,26.21
2018-05-08T11:21:58.708Z,26.06
2018-05-08T11:22:58.716Z,26.10
2018-05-08T11:23:58.807Z,26.34
2018-05-08T11:24:58.806Z,26.59
2018-05-08T11:25:58.707Z,26.82
2018-05-08T11:26:58.720Z,26.89
2018-05-08T11:27:58.707Z,27.03
2018-05-08T11:28:58.686Z,27.10
2018-05-08T11:29:58.704Z,26.96
2018-05-08T11:30:58.721Z,26.86
2018-05-08T11:31:58.758Z,26.67
2018-05-08T11:32:58.785Z,26.58
2018-05-08T11:33:58.792Z,26.48
2018-05-08T11:34:58.778Z,26.48
2018-05-08T11:35:58.777Z,26.33
2018-05-08T11:36:58.797Z,26.47
2018-05-08T11:37:58.763Z,26.45
2018-05-08T11:39:58.846Z,26.34
2018-05-08T11:40:58.733Z,26.51
2018-05-08T11:41:58.747Z,26.55
2018-05-08T11:42:58.854Z,26.64
2018-05-08T11:43:58.858Z,26.62
2018-05-08T11:44:58.791Z,26.37
2018-05-08T11:45:58.859Z,26.24
2018-05-08T11:46:58.797Z,26.37
2018-05-08T11:47:58.795Z,26.26
2018-05-08T11:48:58.736Z,26.44
2018-05-08T11:49:58.875Z,26.54
2018-05-08T11:50:58.871Z,26.74
2018-05-08T11:51:58.786Z,26.84
2018-05-08T11:52:58.751Z,26.74
2018-05-08T11:53:58.824Z,26.67
2018-05-08T11:54:58.831Z,26.67
2018-05-08T11:55:58.740Z,26.86
2018-05-08T11:56:58.765Z,26.82
2018-05-08T11:57:58.738Z,26.64
2018-05-08T11:58:58.777Z,26.81
2018-05-08T11:59:58.737Z,26.89
2018-05-08T12:00:58.807Z,26.82
2018-05-08T12:01:58.743Z,26.79
2018-05-08T12:02:58.839Z,26.55
2018-05-08T12:03:58.838Z,26.44
2018-05-08T12:04:58.769Z,26.44
2018-05-08T12:05:58.839Z,26.56
2018-05-08T12:06:58.844Z,26.64
2018-05-08T12:07:58.780Z,26.79
2018-05-08T12:08:58.818Z,26.60
2018-05-08T12:09:58.776Z,26.75
2018-05-08T12:10:58.824Z,26.79
2018-05-08T12:11:58.781Z,26.97
2018-05-08T12:12:58.778Z,27.30
2018-05-08T12:13:58.855Z,27.44
2018-05-08T12:14:58.778Z,27.07
2018-05-08T12:15:58.780Z,26.97
2018-05-08T12:16:58.811Z,26.95
2018-05-08T12:17:58.827Z,27.01
2018-05-08T12:18:58.792Z,27.12
2018-05-08T12:19:58.786Z,27.22
2018-05-08T12:20:58.861Z,27.26
2018-05-08T12:21:58.787Z,27.30
2018-05-08T12:22:58.793Z,27.17
2018-05-08T12:23:58.821Z,27.29
2018-05-08T12:24:58.820Z,27.40
2018-05-08T12:25:58.874Z,27.46
2018-05-08T12:26:58.813Z,27.52
2018-05-08T12:27:58.790Z,27.29
2018-05-08T12:28:58.777Z,27.29
2018-05-08T12:29:58.758Z,27.28
2018-05-08T12:30:58.851Z,27.22
2018-05-08T12:31:58.799Z,27.19
2018-05-08T12:32:58.893Z,27.11
2018-05-08T12:33:58.863Z,27.08
2018-05-08T12:34:58.891Z,27.07
2018-05-08T12:35:58.781Z,26.88
2018-05-08T12:36:58.820Z,26.88
2018-05-08T12:37:58.830Z,26.89
2018-05-08T12:38:58.895Z,26.89
2018-05-08T12:39:58.900Z,27.03
2018-05-08T12:40:58.885Z,27.11
2018-05-08T12:41:58.923Z,27.23
2018-05-08T12:42:58.867Z,27.11
2018-05-08T12:43:58.835Z,27.17
2018-05-08T12:44:58.892Z,26.93
2018-05-08T12:45:58.818Z,26.95
2018-05-08T12:46:58.900Z,26.95
2018-05-08T12:47:58.909Z,26.75
2018-05-08T12:48:58.886Z,26.97
2018-05-08T12:49:58.849Z,26.75
2018-05-08T12:50:58.870Z,26.66
2018-05-08T12:51:58.774Z,26.74
2018-05-08T12:52:58.846Z,26.66
2018-05-08T12:53:58.905Z,26.68
2018-05-08T12:54:58.872Z,26.64
2018-05-08T12:55:58.874Z,26.52
2018-05-08T12:56:58.908Z,26.67
2018-05-08T12:57:58.839Z,26.82
2018-05-08T12:58:58.936Z,27.07
2018-05-08T12:59:58.907Z,27.07
2018-05-08T13:00:58.843Z,27.18
2018-05-08T13:01:58.873Z,27.21
2018-05-08T13:02:58.851Z,27.34
2018-05-08T13:03:58.780Z,27.36
2018-05-08T13:04:58.835Z,27.37